Airfield :
LOGIN :

Register | Disclaimer

   EN    FR    IT 

 










Legend :    VFR   Marginal VFR   IFR   Intensive IFR   Very Intensive IFR
Visi :
Ceiling :
>= 8 km
>= 3000ft
5 to 8 km
1000 to 3000 ft
1500m to 5 km
500 to 1000 ft
800 to 1500m
200 to 500 ft
< 800m
< 200 ft
Symbols :   Thunderstorms  Fog  Heavy snow  Heavy precipitations  Wind > 20 kt
SIGMETs :     Misc.  Thunderstorms  Icing  Turbulence  Mountain Waves  Volcanic Ashes







- Airport Elevation : 53 ft
- IATA code : HAM


EDDH - Hamburg

CURRENT METAR :
  • 262050Z 22006KT 9999 -RADZ SCT028 BKN042 15/14 Q1006 TEMPO 4000 RADZ BKN007

EXPIRED METARs :
  • 262020Z 22007KT 9999 -RADZ FEW011 SCT037 BKN044 15/14 Q1006 TEMPO 4000 RADZ BKN007
  • 261950Z 23011KT 8000 -RADZ SCT007 SCT011 BKN041 15/14 Q1006 TEMPO 4000 RADZ BKN007
  • 261920Z 23012KT 4900 -RADZ SCT007 BKN012 15/14 Q1006 TEMPO RADZ BKN007
  • 261850Z 25012G25KT 5000 -RADZ SCT006 SCT011 BKN028 16/14 Q1006 TEMPO 4500 RADZ BKN007
  • 261820Z 25009KT 220V280 4900 -RADZ BKN008 BKN028 16/15 Q1007 RERA BECMG 8000 BKN011
  • 261750Z 25010KT 6000 -RADZ FEW018 BKN029 16/14 Q1007 TEMPO 24015G25KT 4500 RA BKN012

TAF AMD TAF EDDH
Valid from the 26 at 19:00 until the 28 at 00:00 UTC


261910Z 2619/2724 24012KT 9999 SCT020 BKN030
TEMPO 2619/2621 24015G25KT 4500 RA BKN008 BKN014
BECMG 2621/2623 22007KT BKN012
TEMPO 2621/2703 3500 RA BKN007
BECMG 2703/2705 28010KT SCT012 BKN020
PROB30
TEMPO 2705/2707 BKN012
TEMPO 2709/2715 29015G25KT
No reported NOTAMs for that airfield.



MET'MAP, your aeronautical weather chart ! - Copyright ORBIFLY December 2007 - Disclaimer

ORBIFLY MET'MAP TEAM :

Programming & Development : Alexandra Zaïnal
Concept & Development : Baudouin d'Aumeries
Co-Development & Prog : Marc-Olivier Méhu
Technical & hardware support : Manuel Goepfert

Contact : metmap@orbifly.com




SOURCES & CREDITS :

   NOAA